Time;durP1;ratioP1;P1;durP2;ratioP2;P2;SDS_P1;SDS_P2;PMS_P1;PMS_P2;Temp;Humidity;BMP_temperature;BMP_pressure;BME280_temperature;BME280_humidity;BME280_pressure;Samples;Min_cycle;Max_cycle;Signal;HPM_P1;HPM_P2
2022/12/19 00:00:05;;;;;;;10.05;4.60;;;;;;;-0.67;100.00;101976.19;6200764;28;20046;-74
2022/12/19 00:03:06;;;;;;;10.50;4.45;;;;;;;-0.66;100.00;101970.16;6201233;28;20057;-74
2022/12/19 00:06:08;;;;;;;12.32;5.63;;;;;;;-0.63;100.00;101969.34;6200838;28;20057;-74
2022/12/19 00:09:09;;;;;;;14.75;4.95;;;;;;;-0.63;100.00;101969.34;6200993;28;20056;-74
2022/12/19 00:12:11;;;;;;;9.10;4.65;;;;;;;-0.62;100.00;101973.66;6200788;28;20050;-74
2022/12/19 00:15:14;;;;;;;7.75;4.03;;;;;;;-0.62;100.00;101964.19;6200534;28;20529;-74
2022/12/19 00:18:15;;;;;;;11.80;4.93;;;;;;;-0.63;100.00;101959.03;6200590;28;20521;-74
2022/12/19 00:21:20;;;;;;;12.20;4.97;;;;;;;-0.64;100.00;101958.13;6200519;28;20054;-74
2022/12/19 00:24:21;;;;;;;10.05;4.88;;;;;;;-0.61;100.00;101957.31;6200528;28;20050;-74
2022/12/19 00:27:23;;;;;;;13.50;4.78;;;;;;;-0.63;100.00;101946.13;6200550;28;20502;-74
2022/12/19 00:30:25;;;;;;;13.48;4.97;;;;;;;-0.64;100.00;101934.03;6200124;28;20189;-74
2022/12/19 00:33:27;;;;;;;9.32;4.30;;;;;;;-0.67;100.00;101936.59;6200296;28;20501;-75
2022/12/19 00:36:30;;;;;;;14.18;4.68;;;;;;;-0.71;100.00;101937.41;6200189;28;20703;-74
2022/12/19 00:39:32;;;;;;;14.00;6.18;;;;;;;-0.71;100.00;101927.06;6200056;28;20047;-74
2022/12/19 00:42:33;;;;;;;15.20;5.03;;;;;;;-0.76;100.00;101919.28;6200326;28;20046;-74
2022/12/19 00:45:38;;;;;;;10.77;5.82;;;;;;;-0.78;100.00;101921.81;6200028;28;20057;-74
2022/12/19 00:48:41;;;;;;;4.88;2.88;;;;;;;-0.81;100.00;101908.91;6200251;28;20054;-74
2022/12/19 00:51:42;;;;;;;12.98;4.93;;;;;;;-0.82;100.00;101912.34;6199960;28;20053;-74
2022/12/19 00:54:44;;;;;;;15.30;5.97;;;;;;;-0.84;100.00;101908.00;6199860;28;20057;-76
2022/12/19 00:57:45;;;;;;;15.10;6.30;;;;;;;-0.84;100.00;101902.84;6198886;28;20058;-75
2022/12/19 01:00:48;;;;;;;9.05;4.78;;;;;;;-0.83;100.00;101909.72;6199463;28;20055;-75
2022/12/19 01:03:50;;;;;;;11.48;5.35;;;;;;;-0.84;100.00;101908.00;6199800;28;20051;-75
2022/12/19 01:06:51;;;;;;;10.90;5.50;;;;;;;-0.83;100.00;101900.25;6199527;28;20521;-75
2022/12/19 01:09:53;;;;;;;8.15;4.35;;;;;;;-0.84;100.00;101893.38;6199535;28;20051;-75
2022/12/19 01:12:53;;;;;;;11.52;5.47;;;;;;;-0.78;100.00;101902.91;6199387;28;20057;-75
2022/12/19 01:15:56;;;;;;;17.52;7.60;;;;;;;-0.80;100.00;101902.88;6199523;28;20050;-75
2022/12/19 01:18:58;;;;;;;10.40;4.93;;;;;;;-0.78;100.00;101897.72;6199179;28;20053;-75
2022/12/19 01:21:59;;;;;;;10.02;4.95;;;;;;;-0.75;100.00;101884.00;6199362;28;20073;-75
2022/12/19 01:25:01;;;;;;;10.43;5.72;;;;;;;-0.76;100.00;101885.72;6199230;28;20053;-74
2022/12/19 01:28:03;;;;;;;13.82;5.88;;;;;;;-0.73;100.00;101878.00;6198969;28;20577;-74
2022/12/19 01:31:06;;;;;;;12.90;5.47;;;;;;;-0.71;100.00;101871.16;6199165;28;20058;-74
2022/12/19 01:34:08;;;;;;;12.02;5.47;;;;;;;-0.71;100.00;101868.59;6198667;28;20054;-74
2022/12/19 01:37:09;;;;;;;16.13;6.68;;;;;;;-0.70;100.00;101872.88;6199002;28;20050;-74
2022/12/19 01:40:13;;;;;;;11.60;4.70;;;;;;;-0.69;100.00;101866.00;6198692;28;20061;-74
2022/12/19 01:43:14;;;;;;;17.27;6.10;;;;;;;-0.70;100.00;101865.16;6198928;28;20520;-74
2022/12/19 01:46:17;;;;;;;15.25;6.47;;;;;;;-0.68;100.00;101860.88;6198653;28;20050;-74
2022/12/19 01:49:27;;;;;;;13.45;6.47;;;;;;;-0.65;100.00;101844.53;6198801;28;20072;-74
2022/12/19 01:52:30;;;;;;;15.48;5.88;;;;;;;-0.65;100.00;101842.81;6198497;28;20051;-75
2022/12/19 01:55:31;;;;;;;16.15;6.15;;;;;;;-0.64;100.00;101847.13;6198481;28;20403;-74
2022/12/19 01:58:33;;;;;;;13.57;6.28;;;;;;;-0.64;100.00;101834.22;6198431;28;20061;-74
2022/12/19 02:01:38;;;;;;;17.13;6.15;;;;;;;-0.63;100.00;101822.22;6198629;28;20055;-75
2022/12/19 02:04:41;;;;;;;18.52;7.65;;;;;;;-0.62;100.00;101818.78;6198590;28;20046;-75
2022/12/19 02:07:43;;;;;;;11.43;6.03;;;;;;;-0.63;100.00;101807.59;6197959;28;20429;-75
2022/12/19 02:10:45;;;;;;;12.07;6.10;;;;;;;-0.62;100.00;101798.97;6198135;28;20051;-75
2022/12/19 02:13:47;;;;;;;15.20;5.88;;;;;;;-0.63;100.00;101791.25;6198155;28;20042;-75
2022/12/19 02:16:58;;;;;;;14.63;5.70;;;;;;;-0.61;100.00;101789.53;6198283;28;20058;-74
2022/12/19 02:20:36;;;;;;;27.90;7.97;;;;;;;-0.62;100.00;101792.97;6197711;28;20054;-74
2022/12/19 02:24:16;;;;;;;13.35;5.82;;;;;;;-0.61;100.00;101784.34;6198217;28;20053;-75
2022/12/19 02:27:42;;;;;;;15.93;5.35;;;;;;;-0.59;100.00;101788.69;6198202;28;20050;-75
2022/12/19 02:31:02;;;;;;;12.07;6.75;;;;;;;-0.56;100.00;101783.53;6197984;28;20518;-75
2022/12/19 02:34:14;;;;;;;12.45;5.28;;;;;;;-0.56;100.00;101785.25;6197871;28;20046;-75
2022/12/19 02:37:21;;;;;;;16.80;6.70;;;;;;;-0.58;100.00;101787.84;6197984;28;20054;-75
2022/12/19 02:40:27;;;;;;;16.10;6.22;;;;;;;-0.54;100.00;101786.16;6197643;28;20050;-75
2022/12/19 02:43:32;;;;;;;20.60;7.15;;;;;;;-0.53;100.00;101787.88;6198131;28;20046;-75
2022/12/19 02:46:35;;;;;;;17.38;6.13;;;;;;;-0.51;100.00;101781.00;6197667;28;20053;-75
2022/12/19 02:49:37;;;;;;;20.75;6.07;;;;;;;-0.47;100.00;101774.16;6197662;28;20050;-75
2022/12/19 02:52:49;;;;;;;15.27;6.43;;;;;;;-0.45;100.00;101769.88;6197482;28;20414;-74
2022/12/19 02:56:08;;;;;;;16.58;6.05;;;;;;;-0.46;100.00;101765.56;6197812;28;20050;-75
2022/12/19 02:59:24;;;;;;;20.15;6.95;;;;;;;-0.43;100.00;101766.44;6197686;28;20046;-75
2022/12/19 03:02:35;;;;;;;14.38;7.30;;;;;;;-0.46;100.00;101763.81;6197445;28;20118;-74
2022/12/19 03:05:46;;;;;;;13.23;5.82;;;;;;;-0.45;100.00;101756.97;6197894;28;20061;-74
2022/12/19 03:08:55;;;;;;;16.02;7.03;;;;;;;-0.43;100.00;101765.59;6197693;28;20054;-74
2022/12/19 03:12:04;;;;;;;15.90;7.57;;;;;;;-0.42;100.00;101764.72;6197412;28;20057;-74
2022/12/19 03:15:07;;;;;;;13.40;6.30;;;;;;;-0.38;100.00;101769.06;6197497;28;20418;-75
2022/12/19 03:18:11;;;;;;;18.90;8.73;;;;;;;-0.35;100.00;101759.63;6197124;28;20073;-75
2022/12/19 03:21:17;;;;;;;15.65;6.43;;;;;;;-0.32;100.00;101748.44;6201569;28;20137;-75
2022/12/19 03:24:19;;;;;;;20.30;7.38;;;;;;;-0.33;100.00;101739.84;6201898;28;20050;-74
2022/12/19 03:27:25;;;;;;;16.25;7.15;;;;;;;-0.32;100.00;101748.44;6202236;28;20054;-75
2022/12/19 03:30:29;;;;;;;20.70;8.20;;;;;;;-0.33;100.00;101749.31;6201664;28;20052;-75
2022/12/19 03:33:34;;;;;;;15.60;6.28;;;;;;;-0.32;100.00;101741.59;6201912;28;20046;-74
2022/12/19 03:36:40;;;;;;;13.98;6.03;;;;;;;-0.32;100.00;101744.16;6200653;28;20096;-75
2022/12/19 03:39:45;;;;;;;14.45;6.82;;;;;;;-0.27;100.00;101726.97;6202136;28;20050;-74
2022/12/19 03:46:13;;;;;;;16.92;6.40;;;;;;;-0.29;100.00;101722.66;6201583;28;20050;-74
2022/12/19 03:49:16;;;;;;;11.73;5.63;;;;;;;-0.28;100.00;101726.94;6201366;28;20046;-75
2022/12/19 03:52:28;;;;;;;14.82;6.78;;;;;;;-0.26;100.00;101720.97;6201531;28;20050;-75
2022/12/19 03:55:37;;;;;;;13.00;6.38;;;;;;;-0.27;100.00;101713.22;6201223;28;20077;-74
2022/12/19 03:58:42;;;;;;;17.85;7.00;;;;;;;-0.25;100.00;101711.50;6201623;28;20130;-74
2022/12/19 04:01:45;;;;;;;15.40;6.38;;;;;;;-0.21;100.00;101715.81;6201175;28;20057;-74
2022/12/19 04:04:53;;;;;;;13.82;5.97;;;;;;;-0.18;100.00;101714.97;6201017;28;20054;-74
2022/12/19 04:07:58;;;;;;;11.57;5.22;;;;;;;-0.17;100.00;101704.66;6201175;28;20057;-75
2022/12/19 04:11:03;;;;;;;15.30;5.72;;;;;;;-0.16;100.00;101708.09;6201055;28;20075;-75
2022/12/19 04:14:08;;;;;;;12.23;5.63;;;;;;;-0.12;100.00;101712.44;6200857;28;20046;-75
2022/12/19 04:17:19;;;;;;;13.90;5.53;;;;;;;-0.12;100.00;101694.34;6200831;28;20731;-75
2022/12/19 04:20:26;;;;;;;23.05;6.97;;;;;;;-0.12;100.00;101686.59;6207372;28;20046;-74
2022/12/19 04:23:33;;;;;;;17.75;8.38;;;;;;;-0.13;100.00;101683.16;6212269;28;20043;-74
2022/12/19 04:26:37;;;;;;;18.63;7.13;;;;;;;-0.14;100.00;101671.06;6208371;28;20042;-74
2022/12/19 04:29:40;;;;;;;18.83;6.78;;;;;;;-0.14;100.00;101670.22;6210649;28;20097;-74
2022/12/19 04:32:42;;;;;;;12.90;5.53;;;;;;;-0.12;100.00;101658.19;6223652;28;20041;-75
2022/12/19 04:35:45;;;;;;;16.17;8.48;;;;;;;-0.10;100.00;101646.13;6224514;28;20050;-75
2022/12/19 04:38:46;;;;;;;15.73;5.85;;;;;;;-0.10;100.00;101623.75;6224817;28;20042;-75
2022/12/19 04:41:48;;;;;;;17.10;7.47;;;;;;;-0.09;100.00;101632.34;6224336;28;20059;-75
2022/12/19 04:44:49;;;;;;;14.13;7.38;;;;;;;-0.09;100.00;101629.75;6224358;28;20072;-75
2022/12/19 04:47:51;;;;;;;14.63;7.43;;;;;;;-0.08;100.00;101624.63;6224362;28;20057;-74
2022/12/19 04:50:54;;;;;;;16.88;7.28;;;;;;;-0.07;100.00;101621.19;6224063;28;20497;-74
2022/12/19 04:53:56;;;;;;;11.95;5.93;;;;;;;-0.06;100.00;101612.56;6224117;28;20510;-74
2022/12/19 04:56:57;;;;;;;22.77;6.53;;;;;;;-0.03;100.00;101607.41;6224441;28;20052;-74
2022/12/19 04:59:59;;;;;;;11.75;6.03;;;;;;;-0.02;100.00;101600.53;6224024;28;20514;-74
2022/12/19 05:03:00;;;;;;;18.73;7.72;;;;;;;-0.02;100.00;101600.53;6224200;28;20056;-74
2022/12/19 05:06:09;;;;;;;13.05;6.63;;;;;;;-0.01;100.00;101576.41;6224013;28;20057;-74
2022/12/19 05:09:11;;;;;;;15.10;7.50;;;;;;;0.01;100.00;101582.47;6223784;28;20057;-74
2022/12/19 05:12:13;;;;;;;13.90;5.90;;;;;;;0.05;100.00;101575.59;6223729;28;20288;-74
2022/12/19 05:15:14;;;;;;;15.75;6.60;;;;;;;0.08;100.00;101570.41;6223628;28;20053;-74
2022/12/19 05:21:28;;;;;;;15.82;6.75;;;;;;;0.14;100.00;101562.69;6200452;28;20502;-77
2022/12/19 05:24:30;;;;;;;16.67;6.40;;;;;;;0.15;100.00;101572.16;6212309;28;20050;-77
2022/12/19 05:27:31;;;;;;;11.35;5.93;;;;;;;0.20;100.00;101571.31;6224482;28;20049;-77
2022/12/19 05:30:33;;;;;;;19.00;7.82;;;;;;;0.29;100.00;101573.06;6201182;28;20054;-77
2022/12/19 05:33:36;;;;;;;13.18;6.50;;;;;;;0.31;100.00;101584.25;6201021;28;20046;-77
2022/12/19 05:36:38;;;;;;;15.68;6.60;;;;;;;0.31;100.00;101573.06;6200296;28;20057;-77
2022/12/19 05:39:40;;;;;;;17.23;7.47;;;;;;;0.33;100.00;101556.69;6200246;28;20047;-77
2022/12/19 05:42:41;;;;;;;18.67;7.63;;;;;;;0.31;100.00;101561.00;6199951;28;20054;-77
2022/12/19 05:45:43;;;;;;;23.98;8.25;;;;;;;0.29;100.00;101549.78;6201319;28;20053;-77
2022/12/19 05:48:44;;;;;;;15.43;6.40;;;;;;;0.28;100.00;101553.25;6201931;28;20057;-78
2022/12/19 05:51:47;;;;;;;19.30;8.48;;;;;;;0.31;100.00;101557.53;6201239;28;20047;-77
2022/12/19 05:54:48;;;;;;;16.77;6.78;;;;;;;0.33;100.00;101550.66;6201774;28;20057;-77
2022/12/19 05:57:50;;;;;;;18.50;7.47;;;;;;;0.31;100.00;101548.06;6203237;28;20048;-78
2022/12/19 06:00:51;;;;;;;12.30;6.15;;;;;;;0.31;100.00;101542.03;6199645;28;20069;-77
2022/12/19 06:03:54;;;;;;;18.27;7.22;;;;;;;0.30;100.00;101545.47;6200103;28;20047;-77
2022/12/19 06:06:57;;;;;;;15.23;6.45;;;;;;;0.29;100.00;101547.22;6200194;28;20046;-77
2022/12/19 06:09:58;;;;;;;12.57;5.82;;;;;;;0.33;100.00;101542.91;6199756;28;20058;-78
2022/12/19 06:13:00;;;;;;;14.32;6.53;;;;;;;0.39;100.00;101537.75;6199350;28;20046;-77
2022/12/19 06:16:03;;;;;;;13.35;6.75;;;;;;;0.44;100.00;101536.03;6221382;28;20062;-77
2022/12/19 06:19:05;;;;;;;15.57;6.85;;;;;;;0.44;100.00;101534.28;6222114;28;20054;-78
2022/12/19 06:22:07;;;;;;;11.98;5.55;;;;;;;0.43;100.00;101523.97;6222014;28;20057;-78
2022/12/19 06:25:09;;;;;;;16.80;6.32;;;;;;;0.44;100.00;101526.53;6219417;28;20045;-78
2022/12/19 06:28:11;;;;;;;20.75;7.13;;;;;;;0.45;100.00;101523.09;6222335;28;20046;-78
2022/12/19 06:31:13;;;;;;;16.45;7.70;;;;;;;0.46;100.00;101519.66;6222214;28;20529;-80
2022/12/19 06:34:15;;;;;;;17.52;7.50;;;;;;;0.47;100.00;101521.38;6222695;28;20509;-80
2022/12/19 06:37:18;;;;;;;18.90;8.48;;;;;;;0.48;100.00;101523.09;6223158;28;20056;-79
2022/12/19 06:43:35;;;;;;;12.63;6.40;;;;;;;0.50;100.00;101525.69;6225524;28;20046;-79
2022/12/19 06:46:37;;;;;;;14.90;6.32;;;;;;;0.49;100.00;101519.66;6224999;28;20046;-81
2022/12/19 06:49:38;;;;;;;10.57;5.60;;;;;;;0.53;100.00;101515.34;6224157;28;20071;-81
2022/12/19 06:52:41;;;;;;;10.90;6.50;;;;;;;0.52;100.00;101516.22;6224180;28;20042;-79
2022/12/19 06:55:42;;;;;;;15.85;6.22;;;;;;;0.53;100.00;101506.72;6230135;28;20037;-79
2022/12/19 06:58:44;;;;;;;21.27;7.20;;;;;;;0.54;100.00;101500.69;6228134;28;20050;-79
2022/12/19 07:01:55;;;;;;;18.58;7.85;;;;;;;0.54;100.00;101509.31;6228118;28;20065;-79
2022/12/19 07:05:02;;;;;;;21.70;8.40;;;;;;;0.55;100.00;101508.47;6227528;28;20429;-81
2022/12/19 07:08:05;;;;;;;12.45;6.15;;;;;;;0.54;100.00;101506.72;6228025;28;20049;-81
2022/12/19 07:11:06;;;;;;;20.13;6.93;;;;;;;0.57;100.00;101509.31;6225999;28;20042;-81
2022/12/19 07:14:08;;;;;;;21.38;7.88;;;;;;;0.64;100.00;101512.78;6228150;28;20398;-81
2022/12/19 07:17:11;;;;;;;12.80;5.82;;;;;;;0.68;100.00;101515.38;6226883;28;20133;-80
2022/12/19 07:20:14;;;;;;;26.27;11.20;;;;;;;0.68;100.00;101509.28;6226543;28;20042;-80
2022/12/19 07:23:20;;;;;;;20.63;7.90;;;;;;;0.67;100.00;101515.34;6226962;28;20080;-80
2022/12/19 07:26:22;;;;;;;16.33;7.38;;;;;;;0.72;100.00;101511.03;6226956;28;20049;-81
2022/12/19 07:29:24;;;;;;;15.20;6.97;;;;;;;0.70;100.00;101510.19;6223947;28;20627;-81
2022/12/19 07:32:25;;;;;;;14.57;7.05;;;;;;;0.73;100.00;101513.63;6224552;28;20065;-81
2022/12/19 07:35:27;;;;;;;21.02;7.10;;;;;;;0.76;100.00;101516.19;6227737;28;20517;-81
2022/12/19 07:38:30;;;;;;;13.18;5.57;;;;;;;0.79;100.00;101507.59;6228337;28;20060;-82
2022/12/19 07:41:31;;;;;;;15.43;7.80;;;;;;;0.86;100.00;101508.41;6228081;28;20056;-81
2022/12/19 07:44:33;;;;;;;13.40;6.10;;;;;;;0.89;100.00;101505.84;6227722;28;20135;-81
2022/12/19 07:47:34;;;;;;;12.82;6.55;;;;;;;0.92;100.00;101511.03;6228600;28;20061;-80
2022/12/19 07:50:36;;;;;;;23.20;8.38;;;;;;;0.95;100.00;101508.41;6230062;28;20050;-80
2022/12/19 07:53:39;;;;;;;16.25;7.97;;;;;;;0.99;100.00;101507.53;6229994;28;20050;-80
2022/12/19 07:56:40;;;;;;;16.55;7.88;;;;;;;0.98;100.00;101504.09;6230263;28;20181;-80
2022/12/19 07:59:42;;;;;;;22.90;7.88;;;;;;;0.96;100.00;101505.84;6229509;28;20049;-80
2022/12/19 08:02:43;;;;;;;16.77;7.60;;;;;;;0.97;100.00;101501.53;6228987;28;20045;-81
2022/12/19 08:05:44;;;;;;;13.68;6.85;;;;;;;1.01;100.00;101503.25;6227805;28;20050;-71
2022/12/19 08:08:48;;;;;;;19.38;8.40;;;;;;;1.02;100.00;101497.19;6229810;28;20049;-82
2022/12/19 08:11:49;;;;;;;23.80;8.45;;;;;;;1.03;100.00;101496.31;6228024;28;20060;-80
2022/12/19 08:14:51;;;;;;;15.80;6.22;;;;;;;1.03;100.00;101491.16;6227982;28;20413;-80
2022/12/19 08:17:54;;;;;;;14.38;7.35;;;;;;;1.07;100.00;101499.78;6228801;28;20054;-81
2022/12/19 08:20:55;;;;;;;13.40;7.22;;;;;;;1.07;100.00;101492.88;6231476;28;20053;-80
2022/12/19 08:23:59;;;;;;;16.05;7.22;;;;;;;1.11;100.00;101492.00;6229512;28;20054;-82
2022/12/19 08:27:01;;;;;;;19.35;8.50;;;;;;;1.14;100.00;101491.16;6229162;28;20139;-80
2022/12/19 08:30:03;;;;;;;20.92;7.85;;;;;;;1.18;100.00;101496.31;6228622;28;20050;-81
2022/12/19 08:33:04;;;;;;;17.48;6.70;;;;;;;1.21;100.00;101495.41;6229787;28;20057;-80
2022/12/19 08:36:07;;;;;;;20.25;9.02;;;;;;;1.18;100.00;101498.91;6228845;28;20053;-80
2022/12/19 08:39:10;;;;;;;17.10;7.05;;;;;;;1.19;100.00;101494.56;6227624;28;20498;-80
2022/12/19 08:42:12;;;;;;;24.60;8.85;;;;;;;1.20;100.00;101497.16;6228379;28;20377;-82
2022/12/19 08:45:13;;;;;;;18.02;7.97;;;;;;;1.20;100.00;101499.75;6227557;28;20050;-80
2022/12/19 08:48:15;;;;;;;18.25;7.45;;;;;;;1.21;100.00;101487.66;6226435;28;20056;-79
2022/12/19 08:51:16;;;;;;;17.60;9.38;;;;;;;1.20;100.00;101493.72;6226162;28;20053;-80
2022/12/19 08:54:19;;;;;;;20.40;8.18;;;;;;;1.18;100.00;101482.47;6226744;28;20050;-79
2022/12/19 08:57:21;;;;;;;19.80;6.82;;;;;;;1.24;100.00;101485.06;6226221;28;20049;-79
2022/12/19 09:00:23;;;;;;;18.35;6.20;;;;;;;1.24;100.00;101479.88;6226671;28;20049;-81
2022/12/19 09:03:25;;;;;;;16.83;6.65;;;;;;;1.24;100.00;101472.13;6226802;28;20050;-82
2022/12/19 09:06:26;;;;;;;17.35;7.80;;;;;;;1.31;100.00;101486.75;6228429;28;20042;-79
2022/12/19 09:09:29;;;;;;;17.90;7.38;;;;;;;1.34;100.00;101481.56;6228189;28;20053;-80
2022/12/19 09:12:31;;;;;;;12.05;6.15;;;;;;;1.38;100.00;101485.03;6227282;28;20052;-80
2022/12/19 09:15:32;;;;;;;13.55;7.47;;;;;;;1.39;100.00;101484.16;6227475;28;20053;-80
2022/12/19 09:18:34;;;;;;;16.42;8.50;;;;;;;1.40;100.00;101478.09;6225798;28;20053;-79
2022/12/19 09:21:36;;;;;;;14.15;6.75;;;;;;;1.40;100.00;101475.50;6226431;28;20042;-80
2022/12/19 09:24:39;;;;;;;15.85;7.10;;;;;;;1.41;100.00;101469.44;6226129;28;20046;-79
2022/12/19 09:27:40;;;;;;;16.92;7.05;;;;;;;1.42;100.00;101468.59;6226960;28;20046;-79
2022/12/19 09:30:42;;;;;;;14.70;7.55;;;;;;;1.44;100.00;101472.03;6226827;28;20469;-79
2022/12/19 09:33:44;;;;;;;14.43;7.40;;;;;;;1.48;100.00;101468.56;6226171;28;20060;-79
2022/12/19 09:36:45;;;;;;;14.82;6.30;;;;;;;1.50;100.00;101467.72;6226325;28;20042;-79
2022/12/19 09:39:48;;;;;;;17.73;6.82;;;;;;;1.53;100.00;101469.41;6226205;28;20046;-80
2022/12/19 09:43:03;;;;;;;18.10;6.03;;;;;;;1.53;100.00;101472.84;6226027;28;20053;-80
2022/12/19 09:46:15;;;;;;;12.82;6.13;;;;;;;1.65;100.00;101460.72;6225886;28;20050;-78
2022/12/19 09:49:19;;;;;;;11.23;5.10;;;;;;;1.75;100.00;101459.81;6225953;28;20058;-79
2022/12/19 09:52:26;;;;;;;10.93;5.72;;;;;;;1.81;100.00;101462.34;6225341;28;20418;-81
2022/12/19 09:55:34;;;;;;;12.35;5.93;;;;;;;1.87;100.00;101458.88;6225945;28;20050;-79
2022/12/19 09:58:39;;;;;;;12.45;5.38;;;;;;;1.87;100.00;101457.16;6224976;28;20521;-79
2022/12/19 10:01:53;;;;;;;11.23;5.85;;;;;;;1.90;100.00;101445.88;6225567;28;20057;-79
2022/12/19 10:05:03;;;;;;;12.50;4.88;;;;;;;2.03;100.00;101444.94;6225611;28;20050;-79
2022/12/19 10:08:16;;;;;;;9.05;5.22;;;;;;;2.08;100.00;101444.91;6223958;28;20049;-81
2022/12/19 10:11:34;;;;;;;15.25;6.28;;;;;;;2.16;100.00;101440.53;6224626;28;20057;-81
2022/12/19 10:14:48;;;;;;;9.07;5.28;;;;;;;2.25;100.00;101437.88;6224326;28;20056;-81
2022/12/19 10:18:04;;;;;;;9.40;4.22;;;;;;;2.36;100.00;101428.25;6222554;28;20414;-80
2022/12/19 10:21:11;;;;;;;10.75;3.83;;;;;;;2.47;100.00;101434.22;6221588;28;20057;-79
2022/12/19 10:24:50;;;;;;;11.35;4.93;;;;;;;2.56;100.00;101435.00;6222806;28;20046;-82
2022/12/19 10:27:56;;;;;;;8.77;4.68;;;;;;;2.69;100.00;101434.88;6224708;28;20046;-80
2022/12/19 10:31:09;;;;;;;10.07;5.13;;;;;;;2.75;100.00;101428.75;6224845;28;20426;-80
2022/12/19 10:34:18;;;;;;;8.90;4.72;;;;;;;2.84;100.00;101426.06;6224534;28;20061;-80
2022/12/19 10:37:24;;;;;;;7.85;4.13;;;;;;;2.96;100.00;101425.09;6223851;28;20054;-79
2022/12/19 10:40:33;;;;;;;8.95;4.30;;;;;;;3.02;100.00;101415.47;6223812;28;20061;-81
2022/12/19 10:43:45;;;;;;;8.95;4.90;;;;;;;3.05;100.00;101414.59;6223947;28;20444;-80
2022/12/19 10:46:49;;;;;;;9.73;3.70;;;;;;;3.03;100.00;101408.56;6223809;28;20052;-80
2022/12/19 10:49:50;;;;;;;8.98;4.00;;;;;;;3.07;100.00;101404.19;6224147;28;20520;-79
2022/12/19 10:52:55;;;;;;;8.68;4.68;;;;;;;3.15;100.00;101400.63;6223502;28;20054;-81
2022/12/19 10:56:01;;;;;;;8.85;4.10;;;;;;;3.24;100.00;101400.50;6223454;28;20092;-79
2022/12/19 10:59:03;;;;;;;11.52;4.78;;;;;;;3.19;100.00;101404.06;6223559;28;20060;-78
2022/12/19 11:02:23;;;;;;;9.18;4.93;;;;;;;3.28;100.00;101403.94;6223377;28;20057;-80
2022/12/19 11:05:28;;;;;;;13.43;4.55;;;;;;;3.26;100.00;101406.53;6223531;28;20053;-78
2022/12/19 11:08:32;;;;;;;10.85;4.70;;;;;;;3.36;100.00;101403.81;6223477;28;20529;-78
2022/12/19 11:11:34;;;;;;;7.20;3.97;;;;;;;3.36;100.00;101396.91;6223417;28;20066;-79
2022/12/19 11:14:40;;;;;;;9.43;4.18;;;;;;;3.38;100.00;101389.09;6223118;28;20050;-77
2022/12/19 11:17:41;;;;;;;9.00;3.92;;;;;;;3.43;100.00;101388.13;6223325;28;20058;-80
2022/12/19 11:20:54;;;;;;;9.13;4.13;;;;;;;3.47;100.00;101382.03;6250725;22;20056;-75
2022/12/19 11:24:02;;;;;;;9.55;4.20;;;;;;;3.51;100.00;101381.09;6245846;28;20056;-75
2022/12/19 11:27:03;;;;;;;8.77;4.85;;;;;;;3.52;100.00;101382.81;6246007;28;20056;-74
2022/12/19 11:30:21;;;;;;;9.38;4.88;;;;;;;3.54;100.00;101386.25;6246080;28;20046;-74
2022/12/19 11:33:22;;;;;;;10.15;4.13;;;;;;;3.57;100.00;101382.75;6221529;28;20527;-74
2022/12/19 11:36:34;;;;;;;14.25;4.97;;;;;;;3.56;100.00;101378.44;6221584;28;20050;-74
2022/12/19 11:39:42;;;;;;;12.27;4.68;;;;;;;3.55;100.00;101372.38;6221410;28;20072;-74
2022/12/19 11:42:50;;;;;;;11.60;5.07;;;;;;;3.53;100.00;101375.88;6226086;28;20532;-74
2022/12/19 11:46:00;;;;;;;8.45;5.20;;;;;;;3.59;100.00;101374.91;6225858;28;20049;-74
2022/12/19 11:49:05;;;;;;;8.02;4.35;;;;;;;3.70;100.00;101371.28;6226345;28;20050;-74
2022/12/19 11:52:17;;;;;;;13.80;5.28;;;;;;;3.71;100.00;101373.00;6225901;28;20050;-74
2022/12/19 11:55:23;;;;;;;9.55;4.35;;;;;;;3.78;100.00;101366.00;6225698;28;20046;-74
2022/12/19 11:58:28;;;;;;;9.55;4.45;;;;;;;3.78;100.00;101366.00;6225365;28;20524;-74
2022/12/19 12:01:52;;;;;;;11.65;4.40;;;;;;;3.75;100.00;101364.28;6225271;28;20417;-74
2022/12/19 12:05:29;;;;;;;12.32;3.83;;;;;;;3.73;100.00;101362.59;6225640;28;20046;-74
2022/12/19 12:08:42;;;;;;;9.52;4.50;;;;;;;3.74;100.00;101362.56;6215230;28;20046;-73
2022/12/19 12:11:51;;;;;;;9.02;4.97;;;;;;;3.88;100.00;101364.09;6225621;28;20050;-74
2022/12/19 12:15:13;;;;;;;14.35;5.45;;;;;;;3.86;100.00;101353.72;6225332;28;20050;-74
2022/12/19 12:18:34;;;;;;;12.95;5.07;;;;;;;3.89;100.00;101353.66;6225699;28;20057;-74
2022/12/19 12:21:42;;;;;;;9.55;5.00;;;;;;;3.96;100.00;101362.25;6224846;28;20085;-74
2022/12/19 12:24:53;;;;;;;17.80;5.30;;;;;;;3.96;100.00;101354.44;6225011;28;20054;-74
2022/12/19 12:28:10;;;;;;;12.15;5.20;;;;;;;4.01;100.00;101360.41;6224999;28;20050;-74
2022/12/19 12:31:24;;;;;;;13.65;5.03;;;;;;;3.95;100.00;101351.00;6224718;28;20054;-74
2022/12/19 12:34:49;;;;;;;8.18;4.88;;;;;;;3.96;100.00;101352.69;6217261;28;20056;-74
2022/12/19 12:38:01;;;;;;;15.35;5.22;;;;;;;4.04;100.00;101348.25;6211390;28;20038;-74
2022/12/19 12:41:15;;;;;;;13.98;5.20;;;;;;;4.08;100.00;101349.03;6200180;28;20047;-74
2022/12/19 12:44:17;;;;;;;13.20;4.88;;;;;;;4.11;100.00;101348.13;6199967;28;20054;-74
2022/12/19 12:47:23;;;;;;;11.77;5.72;;;;;;;4.16;100.00;101343.69;6200194;28;20042;-74
2022/12/19 12:50:27;;;;;;;11.85;6.10;;;;;;;4.18;100.00;101350.59;6199824;28;20062;-74
2022/12/19 12:53:33;;;;;;;8.52;4.90;;;;;;;4.19;100.00;101351.47;6199902;28;20050;-74
2022/12/19 12:56:36;;;;;;;13.13;5.05;;;;;;;4.23;100.00;101347.91;6199761;28;20050;-74
2022/12/19 12:59:38;;;;;;;11.43;5.60;;;;;;;4.24;100.00;101349.63;6200019;28;20050;-74
2022/12/19 13:02:39;;;;;;;13.93;6.15;;;;;;;4.22;100.00;101348.78;6199835;28;20054;-74
2022/12/19 13:05:54;;;;;;;10.90;5.53;;;;;;;4.23;100.00;101350.53;6199519;28;20499;-74
2022/12/19 13:09:03;;;;;;;10.98;5.13;;;;;;;4.25;100.00;101351.34;6199645;28;20620;-74
2022/12/19 13:15:39;;;;;;;14.60;7.55;;;;;;;4.28;100.00;101340.88;6199431;28;20047;-75
2022/12/19 13:19:04;;;;;;;13.60;5.82;;;;;;;4.27;100.00;101350.44;6199550;28;20414;-72
2022/12/19 13:22:17;;;;;;;10.43;5.22;;;;;;;4.31;100.00;101349.50;6199114;28;20402;-74
2022/12/19 13:25:48;;;;;;;12.57;5.68;;;;;;;4.40;100.00;101339.78;6199210;28;20051;-74
2022/12/19 13:28:49;;;;;;;16.45;6.65;;;;;;;4.37;100.00;101348.53;6199453;28;20054;-74
2022/12/19 13:32:10;;;;;;;10.65;4.75;;;;;;;4.47;100.00;101346.63;6198871;28;20050;-74
2022/12/19 13:35:35;;;;;;;12.48;4.65;;;;;;;4.43;100.00;101344.94;6198718;28;20046;-74
2022/12/19 13:38:46;;;;;;;19.92;6.63;;;;;;;4.46;100.00;101350.97;6199326;28;20061;-74
2022/12/19 13:45:25;;;;;;;12.00;4.78;;;;;;;4.48;100.00;101356.97;6198747;28;20062;-74
2022/12/19 13:48:31;;;;;;;10.98;5.20;;;;;;;4.48;100.00;101343.97;6198911;28;20057;-74
2022/12/19 13:51:45;;;;;;;13.93;5.97;;;;;;;4.48;100.00;101348.31;6198592;28;20057;-73
2022/12/19 13:54:49;;;;;;;9.38;5.00;;;;;;;4.54;100.00;101343.00;6199017;28;20050;-74
2022/12/19 13:57:53;;;;;;;12.98;6.15;;;;;;;4.52;100.00;101347.38;6198702;28;20047;-74
2022/12/19 14:00:57;;;;;;;12.25;4.90;;;;;;;4.48;100.00;101351.78;6198249;28;20054;-74
2022/12/19 14:04:03;;;;;;;8.60;5.15;;;;;;;4.49;100.00;101345.69;6197901;28;20517;-74
2022/12/19 14:07:26;;;;;;;16.60;6.43;;;;;;;4.50;100.00;101333.56;6198187;28;20073;-74
2022/12/19 14:10:32;;;;;;;16.02;6.70;;;;;;;4.49;100.00;101327.47;6198250;28;20046;-74
2022/12/19 14:17:06;;;;;;;13.38;6.07;;;;;;;4.43;100.00;101337.13;6198174;28;20054;-74
2022/12/19 14:20:16;;;;;;;15.90;6.50;;;;;;;4.48;100.00;101323.16;6197812;28;20189;-74
2022/12/19 14:23:19;;;;;;;15.63;6.25;;;;;;;4.48;100.00;101324.91;6198287;28;20054;-74
2022/12/19 14:26:27;;;;;;;14.80;6.80;;;;;;;4.54;100.00;101316.97;6197979;28;20046;-74
2022/12/19 14:29:32;;;;;;;15.77;7.10;;;;;;;4.59;100.00;101317.75;6197839;28;20418;-75